Flight Track Log - Related Links

Times and Time Zones

All times are in EST time to prevent confusion due to time zone crossing. See the SWA2169 flight status page for this flight to view local times or setup timezone preferences in your user account.

Time Position Orientation Groundspeed Altitude Reporting Facility
EST Latitude Longitude Course Direction KTS MPH feet Rate Location/Type
Mon 04:18:08 PM 33.4333 -112.0333 253° West 259 298 2,000  Level Phoenix TRACON
Mon 04:19:14 PM 33.4167 -112.1000 253° West 216 249 4,300 2,551 Climbing Phoenix TRACON
Mon 04:20:15 PM 33.3833 -112.1667 239° Southwest 240 276 7,400 1,835 Climbing Phoenix TRACON
Mon 04:21:15 PM 33.3167 -112.1667 180° South 287 330 8,000 1,190 Climbing Phoenix TRACON
Mon 04:22:21 PM 33.2500 -112.1000 140° Southeast 293 337 9,900 2,250 Climbing Phoenix TRACON
Mon 04:23:15 PM 33.2167 -112.0167 116° Southeast 330 380 12,500 3,078 Climbing Phoenix TRACON
Mon 04:24:16 PM 33.2000 -111.9000 100° East 362 417 15,800 3,099 Climbing Phoenix TRACON
Mon 04:24:46 PM 33.1814 -111.8478 113° Southeast 364 419 17,200 2,739 Climbing Albuquerque Center
Mon 04:25:48 PM 33.1506 -111.7244 107° East 385 443 20,000 1,854 Climbing Albuquerque Center
Mon 04:26:49 PM 33.1225 -111.5956 105° East 400 460 21,000 1,317 Climbing Albuquerque Center
Mon 04:27:51 PM 33.0942 -111.4606 104° East 418 481 22,700 1,742 Climbing Albuquerque Center
Mon 04:28:53 PM 33.0672 -111.3150 102° East 448 516 24,600 2,274 Climbing Albuquerque Center
Mon 04:29:55 PM 33.0364 -111.1281 101° East 477 549 27,400 2,293 Climbing Albuquerque Center
Mon 04:30:56 PM 33.0119 -110.9689 100° East 488 562 29,300 1,610 Climbing Albuquerque Center
Mon 04:31:58 PM 32.9894 -110.8011 99° East 506 582 30,700 1,403 Climbing Albuquerque Center
Mon 04:33:00 PM 32.9667 -110.6144 98° East 526 605 32,200 1,113 Climbing Albuquerque Center
Mon 04:34:02 PM 32.9436 -110.4369 99° East 539 620 33,000 1,366 Climbing Albuquerque Center
Mon 04:35:03 PM 32.9156 -110.2642 101° East 537 618 35,000 976 Climbing Albuquerque Center
Mon 04:36:05 PM 32.8747 -110.0992 106° East 526 605 35,000  Level Albuquerque Center
Mon 04:37:07 PM 32.8367 -109.9328 105° East 524 603 35,000  Level Albuquerque Center
Mon 04:38:09 PM 32.7992 -109.7694 105° East 519 597 35,000  Level Albuquerque Center
Mon 04:39:10 PM 32.7542 -109.5750 105° East 512 589 35,000  Level Albuquerque Center
Mon 04:40:12 PM 32.7150 -109.4128 106° East 515 593 35,000  Level Albuquerque Center
Mon 04:41:14 PM 32.6756 -109.2483 106° East 521 600 35,000  Level Albuquerque Center
Mon 04:42:16 PM 32.6367 -109.0853 106° East 521 600 35,000  Level Albuquerque Center
Mon 04:43:17 PM 32.5978 -108.9219 106° East 521 600 35,000 -341 Level Albuquerque Center
Mon 04:44:19 PM 32.5514 -108.7269 106° East 519 597 34,300 -968 Descending Albuquerque Center
Mon 04:45:21 PM 32.5122 -108.5639 106° East 519 597 33,000 -629 Descending Albuquerque Center
Mon 04:46:23 PM 32.4725 -108.4047 106° East 511 588 33,000  Level Albuquerque Center
Mon 04:47:24 PM 32.4306 -108.2356 106° East 501 577 33,000 -146 Level Albuquerque Center
Mon 04:48:26 PM 32.3928 -108.0783 106° East 500 575 32,700 -1,694 Descending Albuquerque Center
Mon 04:49:28 PM 32.3525 -107.9200 107° East 504 580 29,500 -2,952 Descending Albuquerque Center
Mon 04:50:30 PM 32.3119 -107.7556 106° East 517 595 26,600 -2,537 Descending Albuquerque Center
Mon 04:51:31 PM 32.2728 -107.5953 106° East 516 594 24,300 -2,341 Descending Albuquerque Center
Mon 04:52:33 PM 32.2306 -107.4208 106° East 498 573 21,800 -2,274 Descending Albuquerque Center
Mon 04:53:35 PM 32.1950 -107.2711 106° East 482 555 19,600 -2,202 Descending Albuquerque Center
Mon 04:54:22 PM 32.1686 -107.1439 104° East 453 521 17,800 -2,032 Descending Albuquerque Center
Mon 04:54:37 PM 32.1619 -107.1225 110° East 460 529 17,500 -2,055 Descending Albuquerque Center
Mon 04:55:35 PM 32.1289 -106.9906 106° East 419 482 15,300 -2,164 Descending Albuquerque Center
Mon 04:55:38 PM 32.1300 -106.9942 290° West 430 495 15,300 -2,167 Level Albuquerque Center
Mon 04:56:11 PM 32.1108 -106.9125 105° East 405 466 14,000 -1,935 Descending Albuquerque Center
Mon 04:56:40 PM 32.1003 -106.8675 105° East 414 476 13,300 -1,869 Descending Albuquerque Center
Mon 04:57:12 PM 32.0794 -106.7947 109° East 379 436 12,100 -1,839 Descending Albuquerque Center
Mon 04:57:42 PM 32.0714 -106.7500 102° East 388 447 11,400 -1,770 Descending Albuquerque Center
Mon 04:58:13 PM 32.0506 -106.6692 107° East 363 418 10,300 -1,548 Descending Albuquerque Center
Mon 04:58:44 PM 32.0383 -106.6158 105° East 360 414 9,800 -918 Descending Albuquerque Center
Mon 04:59:38 PM 32.0172 -106.5297 106° East 298 343 9,000 -885 Descending Albuquerque Center
Mon 04:59:45 PM 32.0183 -106.5206 82° East 312 359 8,900 -200 Descending Albuquerque Center
Mon 05:00:38 PM 32.0200 -106.4389 89° East 263 303 8,800 -290 Descending Albuquerque Center
Mon 05:00:47 PM 32.0208 -106.4319 82° East 274 315 8,600 -327 Descending Albuquerque Center
Mon 05:01:33 PM 32.0225 -106.3581 88° East 261 300 8,500 -194 Descending Albuquerque Center
Mon 05:01:49 PM 32.0231 -106.3458 87° East 266 306 8,400 -537 Descending Albuquerque Center
Mon 05:02:40 PM 32.0228 -106.2653 90° East 271 312 7,900 -581 Descending Albuquerque Center
Mon 05:02:51 PM 32.0258 -106.2597 57° Northeast 265 305 7,800 -500 Descending Albuquerque Center
Mon 05:03:16 PM 32.0039 -106.2200 123° Southeast 252 290 7,600 -393 Descending Albuquerque Center
Mon 05:03:52 PM 31.9889 -106.1928 123° Southeast 240 276 7,400 -787 Descending Albuquerque Center
Mon 05:04:17 PM 31.9556 -106.1894 175° South 192 221 6,800 -1,258 Descending Albuquerque Center
Mon 05:04:54 PM 31.9347 -106.2147 226° Southwest 185 213 6,100 -818 Descending Albuquerque Center
Mon 05:05:23 PM 31.9172 -106.2367 227° Southwest 165 190 5,900 -194 Descending Albuquerque Center
Mon 05:05:56 PM 31.9014 -106.2592 230° Southwest 171 197 5,900  Level Albuquerque Center
Mon 05:06:24 PM 31.8886 -106.2789 233° Southwest 164 189 5,900 -484 Level Albuquerque Center
Mon 05:06:58 PM 31.8731 -106.2986 227° Southwest 166 191 5,400 -889 Descending Albuquerque Center
Mon 05:07:18 PM 31.8611 -106.3156 230° Southwest 161 185 5,100 -774 Descending Albuquerque Center
Mon 05:08:00 PM 31.8458 -106.3367 230° Southwest 156 180 4,600 -716 Descending Albuquerque Center
Mon 05:08:25 PM 31.8342 -106.3550 233° Southwest 147 169 4,300 -787 Descending Albuquerque Center
Mon 05:09:01 PM 31.8175 -106.3758 227° Southwest 147 169 3,800 -833 Descending Albuquerque Center
Mon 05:11:00 PM 31.8072 -106.3764 187° South  Level Estimated
Mon 05:18:00 PM 31.8072 -106.3764 187° South  Level Estimated

Login

Don't have an account? Register now (free) for customized features, flight alerts, and more!